LYBE/BEG METAR and TAF weather

Enter ICAO airport designator
Station Type Date Time Source
LYBE METAR 2024/04/17 18:00 UTC NOAA

LYBE 171800Z 23007KT 9999 FEW012 BKN040 07/05 Q1005 NOSIG


Station Type Date Time Source
LYBE Decoded METAR 2024/04/17 18:00 UTC NOAA

Beograd / Surcin, Serbia and Montenegro (LYBE) 44-49N 020-17E 99M
Apr 17, 2024 - 02:00 PM EDT / 2024.04.17 1800 UTC
Wind: from the SW (230 degrees) at 8 MPH (7 KT):0
Visibility: greater than 7 mile(s):0
Sky conditions: mostly cloudy
Temperature: 44 F (7 C)
Dew Point: 41 F (5 C)
Relative Humidity: 87%
Pressure (altimeter): 29.68 in. Hg (1005 hPa)
ob: LYBE 171800Z 23007KT 9999 FEW012 BKN040 07/05 Q1005 NOSIG
cycle: 18

Station Type Date Time Source
LYBE TAF 2024/04/17 18:21 UTC NOAA